createdAt,value
2022-10-14T00:02:32.906Z,101254.00
2022-10-14T00:05:35.757Z,101248.97
2022-10-14T00:08:40.464Z,101251.72
2022-10-14T00:11:43.367Z,101249.69
2022-10-14T00:14:46.356Z,101246.00
2022-10-14T00:17:49.269Z,101241.47
2022-10-14T00:20:55.820Z,101246.59
2022-10-14T00:23:59.964Z,101247.91
2022-10-14T00:27:02.781Z,101245.38
2022-10-14T00:30:06.219Z,101248.97
2022-10-14T00:33:09.299Z,101244.53
2022-10-14T00:36:14.232Z,101249.06
2022-10-14T00:39:18.445Z,101247.50
2022-10-14T00:42:21.060Z,101245.22
2022-10-14T00:45:25.463Z,101252.59
2022-10-14T00:48:28.017Z,101240.47
2022-10-14T00:51:30.977Z,101239.50
2022-10-14T00:54:38.701Z,101239.28
2022-10-14T00:57:41.678Z,101247.94
2022-10-14T01:00:44.385Z,101249.00
2022-10-14T01:03:47.366Z,101252.56
2022-10-14T01:07:01.386Z,101239.50
2022-10-14T01:10:12.438Z,101248.31
2022-10-14T01:13:25.802Z,101244.88
2022-10-14T01:16:37.975Z,101247.13
2022-10-14T01:20:17.700Z,101239.75
2022-10-14T01:23:48.956Z,101230.72
2022-10-14T01:27:15.139Z,101238.31
2022-10-14T01:30:20.625Z,101228.94
2022-10-14T01:33:26.508Z,101223.69
2022-10-14T01:36:33.573Z,101223.06
2022-10-14T01:39:43.484Z,101217.84
2022-10-14T01:42:48.578Z,101217.72
2022-10-14T01:45:55.435Z,101222.59
2022-10-14T01:49:03.827Z,101219.84
2022-10-14T01:52:10.048Z,101222.59
2022-10-14T01:55:18.759Z,101220.69
2022-10-14T01:58:24.597Z,101219.47
2022-10-14T02:01:28.936Z,101216.13
2022-10-14T02:04:31.617Z,101215.78
2022-10-14T02:07:40.447Z,101210.41
2022-10-14T02:11:08.047Z,101212.41
2022-10-14T02:14:23.316Z,101207.88
2022-10-14T02:17:31.337Z,101210.00
2022-10-14T02:20:37.411Z,101214.38
2022-10-14T02:23:44.096Z,101215.69
2022-10-14T02:26:48.430Z,101224.38
2022-10-14T02:29:53.188Z,101221.63
2022-10-14T02:32:58.443Z,101224.84
2022-10-14T02:36:03.091Z,101225.69
2022-10-14T02:39:08.916Z,101228.19
2022-10-14T02:42:11.666Z,101236.63
2022-10-14T02:45:15.639Z,101237.22
2022-10-14T02:48:19.704Z,101231.16
2022-10-14T02:51:22.263Z,101227.72
2022-10-14T02:54:24.986Z,101219.50
2022-10-14T02:57:27.590Z,101221.56
2022-10-14T03:00:30.372Z,101213.72
2022-10-14T03:03:34.618Z,101208.25
2022-10-14T03:06:37.220Z,101208.38
2022-10-14T03:09:39.939Z,101214.19
2022-10-14T03:12:42.504Z,101202.81
2022-10-14T03:15:45.241Z,101202.56
2022-10-14T03:18:49.167Z,101198.78
2022-10-14T03:21:51.942Z,101196.38
2022-10-14T03:24:54.473Z,101185.44
2022-10-14T03:27:57.230Z,101187.81
2022-10-14T03:30:59.780Z,101189.50
2022-10-14T03:34:04.594Z,101190.31
2022-10-14T03:37:07.748Z,101184.25
2022-10-14T03:40:11.648Z,101183.91
2022-10-14T03:43:14.307Z,101181.59
2022-10-14T03:46:17.154Z,101173.88
2022-10-14T03:49:21.084Z,101171.63
2022-10-14T03:52:24.132Z,101178.16
2022-10-14T03:55:26.982Z,101200.31
2022-10-14T03:58:29.553Z,101193.78
2022-10-14T04:01:32.223Z,101186.69
2022-10-14T04:04:36.202Z,101172.56
2022-10-14T04:07:39.055Z,101186.16
2022-10-14T04:10:41.672Z,101184.84
2022-10-14T04:13:45.293Z,101189.47
2022-10-14T04:16:50.023Z,101186.28
2022-10-14T04:19:54.570Z,101180.81
2022-10-14T04:23:00.308Z,101169.63
2022-10-14T04:26:04.579Z,101174.63
2022-10-14T04:29:07.465Z,101171.91
2022-10-14T04:32:10.306Z,101173.56
2022-10-14T04:35:14.649Z,101167.25
2022-10-14T04:38:17.202Z,101166.00
2022-10-14T04:41:19.912Z,101163.63
2022-10-14T04:44:22.591Z,101161.59
2022-10-14T04:47:25.206Z,101166.84
2022-10-14T04:50:29.450Z,101165.31
2022-10-14T04:53:32.004Z,101162.09
2022-10-14T04:56:34.726Z,101161.03
2022-10-14T04:59:37.291Z,101161.38
2022-10-14T05:02:40.113Z,101156.91
2022-10-14T05:05:44.042Z,101155.81
2022-10-14T05:08:46.896Z,101152.03
2022-10-14T05:11:49.470Z,101158.91
2022-10-14T05:14:52.204Z,101162.84
2022-10-14T05:17:54.799Z,101167.88
2022-10-14T05:21:00.679Z,101166.56
2022-10-14T05:24:03.324Z,101158.34
2022-10-14T05:27:05.952Z,101160.38
2022-10-14T05:30:09.790Z,101148.97
2022-10-14T05:33:13.164Z,101145.16
2022-10-14T05:36:17.096Z,101142.78
2022-10-14T05:39:19.807Z,101141.94
2022-10-14T05:42:23.070Z,101146.69
2022-10-14T05:45:26.679Z,101142.63
2022-10-14T05:48:29.306Z,101150.75
2022-10-14T05:51:33.658Z,101151.09
2022-10-14T05:54:36.819Z,101139.44
2022-10-14T05:57:39.438Z,101137.06
2022-10-14T06:00:42.258Z,101140.72
2022-10-14T06:03:44.891Z,101146.94
2022-10-14T06:06:49.548Z,101140.72
2022-10-14T06:09:52.701Z,101146.56
2022-10-14T06:12:55.271Z,101145.84
2022-10-14T06:15:57.992Z,101139.06
2022-10-14T06:19:00.600Z,101145.94
2022-10-14T06:22:04.669Z,101145.84
2022-10-14T06:25:07.875Z,101147.63
2022-10-14T06:28:11.304Z,101138.91
2022-10-14T06:31:14.049Z,101140.38
2022-10-14T06:34:16.769Z,101136.88
2022-10-14T06:37:20.703Z,101137.81
2022-10-14T06:40:23.419Z,101137.94
2022-10-14T06:43:26.083Z,101141.34
2022-10-14T06:46:28.800Z,101142.06
2022-10-14T06:49:31.324Z,101147.50
2022-10-14T06:52:35.253Z,101151.97
2022-10-14T06:55:38.204Z,101150.66
2022-10-14T06:58:40.982Z,101163.75
2022-10-14T07:01:43.612Z,101169.41
2022-10-14T07:04:46.333Z,101171.78
2022-10-14T07:07:52.269Z,101169.63
2022-10-14T07:10:55.088Z,101160.88
2022-10-14T07:13:58.881Z,101167.53
2022-10-14T07:17:01.508Z,101164.06
2022-10-14T07:20:04.320Z,101168.28
2022-10-14T07:23:08.364Z,101169.25
2022-10-14T07:26:10.967Z,101173.47
2022-10-14T07:29:13.620Z,101164.97
2022-10-14T07:32:16.179Z,101164.31
2022-10-14T07:35:20.098Z,101175.16
2022-10-14T07:38:24.080Z,101170.06
2022-10-14T07:41:26.729Z,101177.63
2022-10-14T07:44:29.475Z,101175.06
2022-10-14T07:47:33.271Z,101172.22
2022-10-14T07:50:35.855Z,101166.63
2022-10-14T07:53:39.997Z,101171.75
2022-10-14T07:56:46.378Z,101174.03
2022-10-14T07:59:49.199Z,101176.97
2022-10-14T08:02:51.779Z,101160.22
2022-10-14T08:06:00.428Z,101160.13
2022-10-14T08:09:08.803Z,101162.31
2022-10-14T08:12:11.804Z,101170.91
2022-10-14T08:15:14.509Z,101178.22
2022-10-14T08:18:17.217Z,101174.44
2022-10-14T08:21:22.027Z,101168.94
2022-10-14T08:24:26.186Z,101154.69
2022-10-14T08:27:28.765Z,101154.44
2022-10-14T08:30:31.497Z,101159.94
2022-10-14T08:33:34.275Z,101158.34
2022-10-14T08:36:36.834Z,101153.47
2022-10-14T08:39:40.903Z,101144.66
2022-10-14T08:42:51.849Z,101141.97
2022-10-14T08:45:59.821Z,101149.72
2022-10-14T08:49:08.663Z,101139.91
2022-10-14T08:52:16.404Z,101144.66
2022-10-14T08:55:28.897Z,101143.63
2022-10-14T08:58:34.262Z,101131.50
2022-10-14T09:01:46.815Z,101137.28
2022-10-14T09:04:49.859Z,101149.47
2022-10-14T09:07:54.985Z,101138.94
2022-10-14T09:10:59.739Z,101129.56
2022-10-14T09:14:03.703Z,101126.78
2022-10-14T09:17:10.009Z,101137.97
2022-10-14T09:20:20.086Z,101129.22
2022-10-14T09:23:24.567Z,101121.84
2022-10-14T09:26:38.629Z,101123.56
2022-10-14T09:29:46.405Z,101130.16
2022-10-14T09:32:51.933Z,101129.41
2022-10-14T09:35:54.641Z,101124.44
2022-10-14T09:38:59.951Z,101117.38
2022-10-14T09:42:14.469Z,101122.56
2022-10-14T09:45:19.850Z,101124.53
2022-10-14T09:48:32.732Z,101115.00
2022-10-14T09:51:36.100Z,101111.03
2022-10-14T09:54:38.802Z,101116.22
2022-10-14T09:57:43.038Z,101109.25
2022-10-14T10:00:47.257Z,101099.13
2022-10-14T10:03:51.761Z,101091.75
2022-10-14T10:06:56.390Z,101097.72
2022-10-14T10:10:01.513Z,101088.16
2022-10-14T10:13:06.197Z,101089.41
2022-10-14T10:16:19.977Z,101088.34
2022-10-14T10:19:29.000Z,101082.72
2022-10-14T10:22:36.644Z,101079.75
2022-10-14T10:25:39.354Z,101085.03
2022-10-14T10:28:47.305Z,101085.31
2022-10-14T10:32:07.073Z,101083.47
2022-10-14T10:35:23.709Z,101070.84
2022-10-14T10:38:31.734Z,101083.78
2022-10-14T10:41:50.538Z,101082.34
2022-10-14T10:45:07.338Z,101090.44
2022-10-14T10:48:18.546Z,101073.44
2022-10-14T10:51:30.498Z,101079.75
2022-10-14T10:54:44.538Z,101072.97
2022-10-14T10:58:01.605Z,101081.38
2022-10-14T11:01:19.085Z,101074.50
2022-10-14T11:04:34.332Z,101069.97
2022-10-14T11:08:05.159Z,101073.56
2022-10-14T11:11:37.078Z,101075.81
2022-10-14T11:15:15.619Z,101071.59
2022-10-14T11:18:28.903Z,101068.88
2022-10-14T11:21:40.904Z,101068.16
2022-10-14T11:24:54.572Z,101055.94
2022-10-14T11:28:05.499Z,101058.72
2022-10-14T11:31:18.058Z,101041.66
2022-10-14T11:34:39.064Z,101045.75
2022-10-14T11:37:52.428Z,101044.00
2022-10-14T11:41:01.865Z,101037.06
2022-10-14T11:44:11.635Z,101028.63
2022-10-14T11:47:20.469Z,101031.72
2022-10-14T11:50:30.480Z,101024.59
2022-10-14T11:53:46.165Z,101017.59
2022-10-14T11:56:54.865Z,101023.00
2022-10-14T12:00:17.929Z,101020.41
2022-10-14T12:03:28.439Z,101016.78
2022-10-14T12:06:41.703Z,101023.00
2022-10-14T12:09:49.289Z,101024.06
2022-10-14T12:12:52.882Z,101023.41
2022-10-14T12:15:55.932Z,101015.03
2022-10-14T12:18:59.285Z,101016.59
2022-10-14T12:22:10.858Z,101013.91
2022-10-14T12:25:17.377Z,101009.00
2022-10-14T12:28:21.168Z,101010.28
2022-10-14T12:31:35.749Z,101001.22
2022-10-14T12:34:42.292Z,101002.84
2022-10-14T12:37:54.368Z,100990.03
2022-10-14T12:41:34.441Z,101002.19
2022-10-14T12:44:45.671Z,100990.47
2022-10-14T12:47:49.098Z,100990.69
2022-10-14T12:50:58.486Z,100982.22
2022-10-14T12:54:13.993Z,100975.56
2022-10-14T12:57:27.425Z,100973.31
2022-10-14T13:00:33.512Z,100976.41
2022-10-14T13:03:44.548Z,100969.22
2022-10-14T13:07:41.987Z,100955.13
2022-10-14T13:10:48.061Z,100962.81
2022-10-14T13:14:01.732Z,100968.16
2022-10-14T13:17:25.227Z,100959.50
2022-10-14T13:20:51.650Z,100951.88
2022-10-14T13:23:55.670Z,100950.72
2022-10-14T13:27:08.449Z,100945.34
2022-10-14T13:30:20.424Z,100939.53
2022-10-14T13:33:29.558Z,100947.19
2022-10-14T13:36:38.000Z,100947.03
2022-10-14T13:39:40.759Z,100940.50
2022-10-14T13:42:47.168Z,100944.41
2022-10-14T13:45:54.147Z,100946.75
2022-10-14T13:48:59.293Z,100958.06
2022-10-14T13:52:07.842Z,100947.66
2022-10-14T13:55:17.055Z,100946.13
2022-10-14T13:58:22.901Z,100944.72
2022-10-14T14:01:32.235Z,100942.41
2022-10-14T14:04:38.149Z,100941.94
2022-10-14T14:08:21.659Z,100937.81
2022-10-14T14:11:22.060Z,100938.88
2022-10-14T14:14:32.520Z,100939.16
2022-10-14T14:17:36.678Z,100945.78
2022-10-14T14:20:39.284Z,100940.22
2022-10-14T14:23:50.876Z,100933.25
2022-10-14T14:26:56.015Z,100939.75
2022-10-14T14:30:00.144Z,100936.72
2022-10-14T14:33:05.220Z,100924.63
2022-10-14T14:36:12.068Z,100932.19
2022-10-14T14:39:23.819Z,100928.00
2022-10-14T14:42:27.683Z,100928.16
2022-10-14T14:45:36.214Z,100916.16
2022-10-14T14:48:42.233Z,100918.25
2022-10-14T14:51:46.187Z,100907.44
2022-10-14T14:54:49.450Z,100906.31
2022-10-14T14:57:57.868Z,100900.66
2022-10-14T15:01:02.377Z,100894.94
2022-10-14T15:04:11.937Z,100891.19
2022-10-14T15:07:21.468Z,100885.94
2022-10-14T15:10:26.936Z,100871.16
2022-10-14T15:13:50.514Z,100875.50
2022-10-14T15:16:54.631Z,100873.25
2022-10-14T15:19:57.856Z,100876.72
2022-10-14T15:23:00.635Z,100873.22
2022-10-14T15:26:03.286Z,100878.25
2022-10-14T15:29:17.826Z,100873.44
2022-10-14T15:32:23.192Z,100874.38
2022-10-14T15:35:26.621Z,100874.72
2022-10-14T15:41:38.927Z,100867.63
2022-10-14T15:44:41.494Z,100867.38
2022-10-14T15:47:46.186Z,100855.53
2022-10-14T15:50:49.025Z,100853.69
2022-10-14T15:53:52.737Z,100855.09
2022-10-14T16:00:03.977Z,100861.59
2022-10-14T16:03:08.082Z,100864.44
2022-10-14T16:06:10.724Z,100858.44
2022-10-14T16:09:13.547Z,100856.88
2022-10-14T16:12:16.711Z,100865.78
2022-10-14T16:15:33.259Z,100864.72
2022-10-14T16:18:37.288Z,100862.00
2022-10-14T16:21:40.243Z,100848.81
2022-10-14T16:24:43.137Z,100859.59
2022-10-14T16:27:45.727Z,100853.53
2022-10-14T16:30:50.088Z,100853.28
2022-10-14T16:33:55.537Z,100853.81
2022-10-14T16:36:58.130Z,100846.69
2022-10-14T16:40:01.068Z,100844.50
2022-10-14T16:43:03.846Z,100843.38
2022-10-14T16:46:10.414Z,100847.56
2022-10-14T16:49:17.270Z,100845.66
2022-10-14T16:52:20.354Z,100845.66
2022-10-14T16:55:23.949Z,100840.41
2022-10-14T16:58:27.841Z,100835.22
2022-10-14T17:01:30.674Z,100836.88
2022-10-14T17:04:34.741Z,100836.31
2022-10-14T17:07:37.302Z,100831.66
2022-10-14T17:10:40.608Z,100831.41
2022-10-14T17:13:43.353Z,100844.09
2022-10-14T17:16:48.094Z,100838.56
2022-10-14T17:19:53.867Z,100843.81
2022-10-14T17:22:56.401Z,100830.28
2022-10-14T17:25:59.239Z,100827.81
2022-10-14T17:29:02.359Z,100825.03
2022-10-14T17:32:05.107Z,100825.59
2022-10-14T17:35:12.838Z,100814.84
2022-10-14T17:38:17.792Z,100819.84
2022-10-14T17:41:20.532Z,100823.97
2022-10-14T17:44:23.499Z,100819.56
2022-10-14T17:47:26.722Z,100826.47
2022-10-14T17:50:30.806Z,100820.97
2022-10-14T17:53:33.391Z,100832.00
2022-10-14T17:56:37.536Z,100826.75
2022-10-14T17:59:40.233Z,100827.06
2022-10-14T18:02:42.860Z,100821.00
2022-10-14T18:05:48.961Z,100815.16
2022-10-14T18:08:53.737Z,100808.28
2022-10-14T18:12:13.008Z,100802.75
2022-10-14T18:15:16.078Z,100793.06
2022-10-14T18:18:18.774Z,100798.31
2022-10-14T18:21:23.081Z,100790.88
2022-10-14T18:24:25.923Z,100791.16
2022-10-14T18:27:28.625Z,100791.47
2022-10-14T18:30:31.369Z,100801.09
2022-10-14T18:33:35.555Z,100807.75
2022-10-14T18:36:39.615Z,100793.69
2022-10-14T18:39:42.301Z,100790.38
2022-10-14T18:42:45.158Z,100793.16
2022-10-14T18:45:47.881Z,100785.41
2022-10-14T18:48:52.795Z,100781.84
2022-10-14T18:51:56.733Z,100780.19
2022-10-14T18:54:59.358Z,100776.91
2022-10-14T18:58:02.081Z,100770.56
2022-10-14T19:01:05.295Z,100772.75
2022-10-14T19:04:09.417Z,100772.50
2022-10-14T19:07:13.456Z,100763.94
2022-10-14T19:10:16.178Z,100768.06
2022-10-14T19:13:18.932Z,100765.56
2022-10-14T19:16:23.468Z,100764.47
2022-10-14T19:19:26.022Z,100757.84
2022-10-14T19:22:30.053Z,100771.34
2022-10-14T19:25:33.080Z,100752.59
2022-10-14T19:28:35.996Z,100742.94
2022-10-14T19:31:40.000Z,100744.53
2022-10-14T19:34:47.054Z,100743.72
2022-10-14T19:37:51.378Z,100739.56
2022-10-14T19:40:53.992Z,100741.53
2022-10-14T19:43:57.969Z,100738.47
2022-10-14T19:47:00.815Z,100742.63
2022-10-14T19:50:03.520Z,100731.31
2022-10-14T19:53:07.590Z,100725.81
2022-10-14T19:56:14.549Z,100722.75
2022-10-14T19:59:17.273Z,100707.59
2022-10-14T20:02:20.081Z,100718.38
2022-10-14T20:05:23.016Z,100714.50
2022-10-14T20:08:29.447Z,100719.44
2022-10-14T20:11:32.305Z,100707.59
2022-10-14T20:14:35.177Z,100711.22
2022-10-14T20:17:37.869Z,100704.84
2022-10-14T20:20:40.646Z,100690.78
2022-10-14T20:23:46.441Z,100700.97
2022-10-14T20:26:49.138Z,100694.59
2022-10-14T20:29:51.955Z,100692.13
2022-10-14T20:32:55.106Z,100688.00
2022-10-14T20:36:01.970Z,100692.38
2022-10-14T20:39:06.935Z,100701.75
2022-10-14T20:42:09.613Z,100703.09
2022-10-14T20:45:12.455Z,100702.31
2022-10-14T20:48:15.339Z,100695.72
2022-10-14T20:51:19.571Z,100689.38
2022-10-14T20:54:24.140Z,100689.28
2022-10-14T20:57:26.696Z,100680.47
2022-10-14T21:00:32.790Z,100680.81
2022-10-14T21:03:41.737Z,100668.38
2022-10-14T21:06:44.733Z,100662.59
2022-10-14T21:09:50.994Z,100655.97
2022-10-14T21:12:53.642Z,100653.25
2022-10-14T21:15:56.471Z,100640.56
2022-10-14T21:19:01.865Z,100643.91
2022-10-14T21:22:04.714Z,100632.88
2022-10-14T21:25:09.638Z,100626.22
2022-10-14T21:28:12.384Z,100625.94
2022-10-14T21:31:19.277Z,100632.28
2022-10-14T21:34:24.925Z,100630.84
2022-10-14T21:37:27.750Z,100630.31
2022-10-14T21:40:31.910Z,100624.25
2022-10-14T21:43:39.020Z,100625.63
2022-10-14T21:46:42.052Z,100625.63
2022-10-14T21:49:45.012Z,100614.88
2022-10-14T21:52:48.119Z,100611.53
2022-10-14T21:55:54.502Z,100606.31
2022-10-14T21:58:57.704Z,100606.03
2022-10-14T22:02:00.639Z,100601.03
2022-10-14T22:05:03.550Z,100593.03
2022-10-14T22:08:06.378Z,100582.88
2022-10-14T22:11:18.867Z,100581.47
2022-10-14T22:14:23.552Z,100568.22
2022-10-14T22:17:26.828Z,100571.25
2022-10-14T22:20:29.847Z,100565.47
2022-10-14T22:23:33.082Z,100561.34
2022-10-14T22:26:40.940Z,100565.75
2022-10-14T22:29:45.730Z,100554.75
2022-10-14T22:32:48.698Z,100554.72
2022-10-14T22:35:51.788Z,100556.97
2022-10-14T22:38:56.068Z,100548.94
2022-10-14T22:42:00.531Z,100540.13
2022-10-14T22:45:03.369Z,100541.00
2022-10-14T22:48:06.787Z,100534.38
2022-10-14T22:51:11.695Z,100538.50
2022-10-14T22:54:14.721Z,100531.63
2022-10-14T22:57:21.862Z,100534.88
2022-10-14T23:00:27.522Z,100521.94
2022-10-14T23:03:31.020Z,100531.03
2022-10-14T23:06:36.628Z,100523.06
2022-10-14T23:09:39.782Z,100525.75
2022-10-14T23:12:44.050Z,100516.44
2022-10-14T23:15:56.248Z,100521.53
2022-10-14T23:19:00.173Z,100509.97
2022-10-14T23:22:05.432Z,100509.97
2022-10-14T23:25:09.117Z,100510.91
2022-10-14T23:28:13.355Z,100520.66
2022-10-14T23:31:18.177Z,100515.38
2022-10-14T23:34:21.357Z,100516.47
2022-10-14T23:37:24.335Z,100508.72
2022-10-14T23:40:27.608Z,100499.63
2022-10-14T23:43:32.093Z,100511.25
2022-10-14T23:46:35.062Z,100518.00
2022-10-14T23:49:38.044Z,100506.50
2022-10-14T23:52:40.831Z,100507.16
2022-10-14T23:55:44.368Z,100509.91
2022-10-14T23:58:50.268Z,100496.91
